createdAt,value
2023-03-27T00:01:15.959Z,93071.19
2023-03-27T00:03:49.340Z,93061.22
2023-03-27T00:06:17.708Z,93064.81
2023-03-27T00:08:46.840Z,93057.16
2023-03-27T00:11:14.642Z,93058.22
2023-03-27T00:13:49.146Z,93063.66
2023-03-27T00:16:16.777Z,93055.66
2023-03-27T00:18:44.804Z,93072.84
2023-03-27T00:21:11.191Z,93067.91
2023-03-27T00:23:37.632Z,93059.59
2023-03-27T00:26:04.284Z,93063.16
2023-03-27T00:28:30.986Z,93061.56
2023-03-27T00:30:58.232Z,93066.06
2023-03-27T00:33:25.737Z,93067.03
2023-03-27T00:35:52.719Z,93057.78
2023-03-27T00:38:19.323Z,93060.84
2023-03-27T00:40:46.817Z,93054.81
2023-03-27T00:43:34.997Z,93060.75
2023-03-27T00:46:25.642Z,93061.31
2023-03-27T00:48:52.835Z,93060.53
2023-03-27T00:51:23.888Z,93057.97
2023-03-27T00:53:51.396Z,93056.44
2023-03-27T00:56:18.318Z,93045.63
2023-03-27T00:58:50.144Z,93052.72
2023-03-27T01:01:19.156Z,93049.88
2023-03-27T01:03:47.373Z,93048.31
2023-03-27T01:06:16.920Z,93055.50
2023-03-27T01:08:45.706Z,93057.53
2023-03-27T01:11:46.223Z,93060.56
2023-03-27T01:14:49.792Z,93057.72
2023-03-27T01:17:40.985Z,93063.66
2023-03-27T01:20:20.227Z,93066.25
2023-03-27T01:23:35.961Z,93074.47
2023-03-27T01:26:16.625Z,93076.56
2023-03-27T01:29:16.386Z,93078.56
2023-03-27T01:32:33.306Z,93073.41
2023-03-27T01:35:17.863Z,93072.66
2023-03-27T01:38:03.983Z,93070.34
2023-03-27T01:40:36.450Z,93088.13
2023-03-27T01:43:11.166Z,93087.56
2023-03-27T01:46:00.375Z,93086.97
2023-03-27T01:48:39.184Z,93097.03
2023-03-27T01:51:16.245Z,93102.88
2023-03-27T01:53:49.354Z,93110.34
2023-03-27T01:56:26.892Z,93110.84
2023-03-27T01:59:03.949Z,93116.00
2023-03-27T02:01:36.725Z,93113.00
2023-03-27T02:04:07.492Z,93116.66
2023-03-27T02:06:43.694Z,93119.13
2023-03-27T02:09:29.777Z,93125.59
2023-03-27T02:12:24.253Z,93129.78
2023-03-27T02:14:56.220Z,93125.25
2023-03-27T02:17:26.753Z,93133.00
2023-03-27T02:20:17.816Z,93135.09
2023-03-27T02:22:48.718Z,93127.22
2023-03-27T02:25:36.991Z,93156.00
2023-03-27T02:28:15.835Z,93158.41
2023-03-27T02:31:05.259Z,93159.50
2023-03-27T02:34:08.767Z,93178.59
2023-03-27T02:37:02.314Z,93186.69
2023-03-27T02:40:04.482Z,93191.13
2023-03-27T02:42:45.901Z,93196.09
2023-03-27T02:45:32.641Z,93198.75
2023-03-27T02:48:19.732Z,93213.78
2023-03-27T02:51:01.107Z,93219.47
2023-03-27T02:53:29.997Z,93224.16
2023-03-27T02:56:03.477Z,93234.75
2023-03-27T02:58:50.084Z,93237.88
2023-03-27T03:01:32.799Z,93244.06
2023-03-27T03:04:24.335Z,93259.84
2023-03-27T03:07:11.409Z,93255.81
2023-03-27T03:09:40.321Z,93275.19
2023-03-27T03:12:08.835Z,93275.97
2023-03-27T03:14:44.079Z,93285.63
2023-03-27T03:17:14.432Z,93289.22
2023-03-27T03:19:41.099Z,93300.13
2023-03-27T03:22:07.891Z,93314.09
2023-03-27T03:24:35.866Z,93313.88
2023-03-27T03:27:04.117Z,93317.25
2023-03-27T03:29:36.956Z,93328.13
2023-03-27T03:32:12.942Z,93332.53
2023-03-27T03:34:41.815Z,93351.38
2023-03-27T03:37:10.701Z,93362.50
2023-03-27T03:39:37.465Z,93364.03
2023-03-27T03:42:04.248Z,93370.50
2023-03-27T03:44:30.782Z,93375.41
2023-03-27T03:47:00.158Z,93389.84
2023-03-27T03:49:26.991Z,93388.09
2023-03-27T03:52:03.527Z,93396.59
2023-03-27T03:54:30.528Z,93410.78
2023-03-27T03:56:57.051Z,93410.53
2023-03-27T03:59:23.888Z,93419.56
2023-03-27T04:02:18.000Z,93420.38
2023-03-27T04:04:46.549Z,93436.09
2023-03-27T04:07:13.597Z,93449.00
2023-03-27T04:09:44.864Z,93450.53
2023-03-27T04:12:17.943Z,93455.44
2023-03-27T04:14:57.092Z,93465.47
2023-03-27T04:17:49.144Z,93464.19
2023-03-27T04:20:17.131Z,93472.94
2023-03-27T04:22:46.357Z,93482.47
2023-03-27T04:25:15.846Z,93485.03
2023-03-27T04:27:44.607Z,93492.22
2023-03-27T04:30:28.457Z,93497.91
2023-03-27T04:33:18.636Z,93500.19
2023-03-27T04:36:07.829Z,93518.47
2023-03-27T04:38:55.450Z,93520.50
2023-03-27T04:41:21.960Z,93529.78
2023-03-27T04:43:48.579Z,93539.00
2023-03-27T04:46:15.076Z,93539.53
2023-03-27T04:48:42.982Z,93560.59
2023-03-27T04:51:20.392Z,93567.00
2023-03-27T04:53:47.767Z,93569.84
2023-03-27T04:56:14.804Z,93564.66
2023-03-27T04:58:45.638Z,93590.91
2023-03-27T05:01:15.446Z,93591.13
2023-03-27T05:04:02.484Z,93597.78
2023-03-27T05:07:00.187Z,93612.94
2023-03-27T05:09:27.264Z,93620.63
2023-03-27T05:11:53.988Z,93631.41
2023-03-27T05:14:22.691Z,93630.34
2023-03-27T05:16:50.573Z,93638.03
2023-03-27T05:19:19.389Z,93650.13
2023-03-27T05:21:52.494Z,93654.72
2023-03-27T05:24:19.485Z,93655.50
2023-03-27T05:26:46.939Z,93662.19
2023-03-27T05:29:15.377Z,93664.50
2023-03-27T05:31:44.781Z,93660.84
2023-03-27T05:34:38.426Z,93677.56
2023-03-27T05:37:10.487Z,93682.69
2023-03-27T05:39:56.842Z,93686.53
2023-03-27T05:42:23.338Z,93700.38
2023-03-27T05:44:49.767Z,93699.13
2023-03-27T05:47:16.264Z,93702.22
2023-03-27T05:49:42.852Z,93705.53
2023-03-27T05:52:11.939Z,93708.59
2023-03-27T05:54:38.387Z,93725.53
2023-03-27T05:57:09.567Z,93724.44
2023-03-27T05:59:38.208Z,93741.91
2023-03-27T06:02:21.015Z,93749.31
2023-03-27T06:04:54.256Z,93758.53
2023-03-27T06:07:42.561Z,93758.53
2023-03-27T06:10:13.610Z,93782.63
2023-03-27T06:12:45.234Z,93784.66
2023-03-27T06:15:29.427Z,93787.47
2023-03-27T06:18:16.119Z,93800.88
2023-03-27T06:20:42.680Z,93796.47
2023-03-27T06:23:09.504Z,93805.19
2023-03-27T06:25:39.198Z,93814.50
2023-03-27T06:28:09.097Z,93814.50
2023-03-27T06:30:42.159Z,93815.25
2023-03-27T06:33:31.590Z,93815.50
2023-03-27T06:36:01.636Z,93836.03
2023-03-27T06:38:33.506Z,93826.78
2023-03-27T06:41:01.309Z,93822.91
2023-03-27T06:43:47.733Z,93839.88
2023-03-27T06:46:38.674Z,93851.63
2023-03-27T06:49:37.440Z,93860.06
2023-03-27T06:52:12.105Z,93874.50
2023-03-27T06:54:38.495Z,93884.25
2023-03-27T06:57:05.614Z,93882.69
2023-03-27T06:59:44.563Z,93891.38
2023-03-27T07:02:11.701Z,93890.84
2023-03-27T07:05:04.213Z,93899.34
2023-03-27T07:07:36.116Z,93909.34
2023-03-27T07:10:02.732Z,93909.91
2023-03-27T07:12:29.793Z,93914.06
2023-03-27T07:14:56.309Z,93912.53
2023-03-27T07:17:34.958Z,93916.09
2023-03-27T07:20:12.533Z,93925.59
2023-03-27T07:22:42.786Z,93936.84
2023-03-27T07:25:14.804Z,93934.97
2023-03-27T07:27:43.292Z,93940.88
2023-03-27T07:30:13.066Z,93952.22
2023-03-27T07:32:42.984Z,93955.59
2023-03-27T07:35:11.850Z,93962.31
2023-03-27T07:38:10.776Z,93974.59
2023-03-27T07:40:57.565Z,93975.38
2023-03-27T07:43:29.840Z,93993.09
2023-03-27T07:45:57.735Z,94002.66
2023-03-27T07:48:25.617Z,93997.03
2023-03-27T07:50:56.112Z,94010.97
2023-03-27T07:53:32.968Z,94008.16
2023-03-27T07:56:08.771Z,94022.28
2023-03-27T07:58:35.651Z,94014.13
2023-03-27T08:01:03.239Z,94022.84
2023-03-27T08:03:31.949Z,94025.16
2023-03-27T08:06:00.389Z,94035.97
2023-03-27T08:08:29.650Z,94039.38
2023-03-27T08:10:58.497Z,94045.34
2023-03-27T08:13:29.876Z,94047.22
2023-03-27T08:16:13.308Z,94054.13
2023-03-27T08:18:42.519Z,94057.00
2023-03-27T08:21:10.589Z,94062.91
2023-03-27T08:23:39.365Z,94064.25
2023-03-27T08:26:26.528Z,94058.38
2023-03-27T08:28:58.349Z,94067.44
2023-03-27T08:31:29.165Z,94069.28
2023-03-27T08:33:59.048Z,94083.25
2023-03-27T08:36:28.839Z,94088.44
2023-03-27T08:38:55.459Z,94098.16
2023-03-27T08:41:38.526Z,94097.84
2023-03-27T08:44:16.023Z,94109.91
2023-03-27T08:47:02.849Z,94126.06
2023-03-27T08:49:44.420Z,94124.22
2023-03-27T08:52:25.204Z,94128.22
2023-03-27T08:54:59.762Z,94131.84
2023-03-27T08:57:35.447Z,94142.25
2023-03-27T09:00:18.439Z,94148.81
2023-03-27T09:02:53.977Z,94143.13
2023-03-27T09:05:26.184Z,94150.88
2023-03-27T09:08:22.172Z,94147.38
2023-03-27T09:10:52.221Z,94153.97
2023-03-27T09:13:51.024Z,94155.97
2023-03-27T09:16:49.237Z,94158.63
2023-03-27T09:19:45.433Z,94169.53
2023-03-27T09:22:48.128Z,94167.47
2023-03-27T09:25:32.481Z,94159.50
2023-03-27T09:28:30.064Z,94168.44
2023-03-27T09:31:20.279Z,94170.59
2023-03-27T09:33:47.836Z,94183.03
2023-03-27T09:36:14.444Z,94186.59
2023-03-27T09:38:50.579Z,94186.09
2023-03-27T09:41:25.571Z,94188.19
2023-03-27T09:44:06.232Z,94192.31
2023-03-27T09:46:40.557Z,94193.34
2023-03-27T09:49:14.220Z,94201.88
2023-03-27T09:51:53.356Z,94214.56
2023-03-27T09:54:53.797Z,94214.56
2023-03-27T09:57:34.841Z,94209.66
2023-03-27T10:00:15.403Z,94208.44
2023-03-27T10:02:42.038Z,94206.44
2023-03-27T10:05:15.495Z,94213.44
2023-03-27T10:07:44.481Z,94225.59
2023-03-27T10:10:32.423Z,94222.53
2023-03-27T10:13:20.787Z,94224.69
2023-03-27T10:15:57.484Z,94225.72
2023-03-27T10:18:34.400Z,94230.66
2023-03-27T10:21:33.094Z,94235.03
2023-03-27T10:24:33.080Z,94238.91
2023-03-27T10:27:40.543Z,94239.97
2023-03-27T10:30:35.325Z,94238.41
2023-03-27T10:33:30.320Z,94249.03
2023-03-27T10:36:11.858Z,94239.53
2023-03-27T10:38:41.583Z,94266.72
2023-03-27T10:41:28.355Z,94253.03
2023-03-27T10:43:57.527Z,94265.19
2023-03-27T10:46:27.799Z,94273.97
2023-03-27T10:49:25.431Z,94277.53
2023-03-27T10:52:16.962Z,94266.69
2023-03-27T10:55:11.500Z,94286.13
2023-03-27T10:57:39.440Z,94281.47
2023-03-27T11:00:24.333Z,94287.41
2023-03-27T11:03:06.537Z,94291.28
2023-03-27T11:05:39.563Z,94295.44
2023-03-27T11:08:21.566Z,94296.22
2023-03-27T11:10:50.121Z,94301.13
2023-03-27T11:13:30.877Z,94301.34
2023-03-27T11:16:27.232Z,94308.97
2023-03-27T11:19:31.770Z,94305.31
2023-03-27T11:22:25.324Z,94311.16
2023-03-27T11:25:08.240Z,94310.16
2023-03-27T11:27:39.916Z,94308.66
2023-03-27T11:30:16.169Z,94320.00
2023-03-27T11:33:13.313Z,94330.06
2023-03-27T11:35:48.574Z,94333.56
2023-03-27T11:38:49.389Z,94335.84
2023-03-27T11:41:16.318Z,94331.97
2023-03-27T11:43:43.349Z,94332.66
2023-03-27T11:46:47.417Z,94318.41
2023-03-27T11:49:41.639Z,94318.84
2023-03-27T11:52:38.219Z,94331.25
2023-03-27T11:55:31.245Z,94334.72
2023-03-27T11:58:14.000Z,94336.06
2023-03-27T12:00:58.936Z,94357.22
2023-03-27T12:03:48.831Z,94350.47
2023-03-27T12:06:34.254Z,94350.41
2023-03-27T12:09:19.723Z,94369.00
2023-03-27T12:12:23.760Z,94380.66
2023-03-27T12:15:01.284Z,94384.50
2023-03-27T12:17:36.892Z,94385.28
2023-03-27T12:20:58.718Z,94380.66
2023-03-27T12:23:56.046Z,94366.06
2023-03-27T12:27:23.283Z,94366.00
2023-03-27T12:30:13.070Z,94360.34
2023-03-27T12:33:03.477Z,94361.91
2023-03-27T12:35:36.037Z,94357.53
2023-03-27T12:38:07.506Z,94364.75
2023-03-27T12:40:48.576Z,94364.22
2023-03-27T12:43:19.586Z,94352.09
2023-03-27T12:46:23.645Z,94362.44
2023-03-27T12:49:00.294Z,94354.41
2023-03-27T12:51:42.169Z,94353.53
2023-03-27T12:54:27.176Z,94378.94
2023-03-27T12:57:08.053Z,94370.16
2023-03-27T12:59:46.861Z,94359.13
2023-03-27T13:02:46.076Z,94355.38
2023-03-27T13:05:37.789Z,94346.16
2023-03-27T13:08:29.847Z,94358.97
2023-03-27T13:11:29.836Z,94356.97
2023-03-27T13:14:22.243Z,94361.13
2023-03-27T13:17:20.994Z,94355.19
2023-03-27T13:19:56.346Z,94353.56
2023-03-27T13:22:40.488Z,94361.31
2023-03-27T13:25:39.161Z,94367.06
2023-03-27T13:28:24.648Z,94361.88
2023-03-27T13:31:01.265Z,94348.88
2023-03-27T13:34:10.762Z,94359.88
2023-03-27T13:36:47.705Z,94361.50
2023-03-27T13:39:22.097Z,94357.22
2023-03-27T13:42:02.524Z,94366.97
2023-03-27T13:44:36.364Z,94360.91
2023-03-27T13:47:28.402Z,94364.22
2023-03-27T13:50:21.584Z,94355.06
2023-03-27T13:53:12.103Z,94365.81
2023-03-27T13:56:15.735Z,94369.31
2023-03-27T13:59:29.084Z,94378.69
2023-03-27T14:02:35.811Z,94373.31
2023-03-27T14:05:36.868Z,94386.75
2023-03-27T14:08:19.587Z,94397.84
2023-03-27T14:11:45.698Z,94399.06
2023-03-27T14:14:48.832Z,94399.22
2023-03-27T14:17:36.711Z,94392.19
2023-03-27T14:20:15.051Z,94404.56
2023-03-27T14:22:56.917Z,94406.75
2023-03-27T14:25:34.286Z,94428.66
2023-03-27T14:28:34.652Z,94435.84
2023-03-27T14:31:07.344Z,94447.66
2023-03-27T14:34:13.087Z,94445.59
2023-03-27T14:36:42.410Z,94433.28
2023-03-27T14:39:24.469Z,94438.28
2023-03-27T14:42:02.361Z,94441.06
2023-03-27T14:44:33.420Z,94447.56
2023-03-27T14:47:11.845Z,94441.13
2023-03-27T14:49:45.773Z,94428.16
2023-03-27T14:52:33.196Z,94432.75
2023-03-27T14:55:23.161Z,94426.47
2023-03-27T14:58:11.105Z,94442.38
2023-03-27T15:00:40.863Z,94432.94
2023-03-27T15:03:17.420Z,94447.00
2023-03-27T15:05:58.766Z,94454.72
2023-03-27T15:08:36.718Z,94444.81
2023-03-27T15:11:46.665Z,94475.59
2023-03-27T15:14:26.489Z,94456.88
2023-03-27T15:17:06.698Z,94471.66
2023-03-27T15:19:45.341Z,94462.81
2023-03-27T15:22:18.757Z,94455.56
2023-03-27T15:24:58.273Z,94462.06
2023-03-27T15:27:32.010Z,94466.41
2023-03-27T15:30:03.475Z,94452.50
2023-03-27T15:32:42.551Z,94463.63
2023-03-27T15:35:15.138Z,94459.69
2023-03-27T15:37:42.923Z,94467.16
2023-03-27T15:40:22.425Z,94462.66
2023-03-27T15:42:51.759Z,94470.97
2023-03-27T15:45:23.655Z,94467.19
2023-03-27T15:48:02.812Z,94468.75
2023-03-27T15:50:29.398Z,94485.13
2023-03-27T15:52:58.094Z,94475.72
2023-03-27T15:55:47.248Z,94484.69
2023-03-27T15:58:13.633Z,94484.31
2023-03-27T16:00:48.959Z,94491.41
2023-03-27T16:03:21.238Z,94487.88
2023-03-27T16:05:50.003Z,94495.66
2023-03-27T16:08:36.966Z,94501.97
2023-03-27T16:11:05.057Z,94477.91
2023-03-27T16:13:51.543Z,94478.78
2023-03-27T16:16:27.016Z,94490.38
2023-03-27T16:18:53.582Z,94486.56
2023-03-27T16:21:26.285Z,94488.03
2023-03-27T16:23:52.870Z,94500.31
2023-03-27T16:26:28.139Z,94487.53
2023-03-27T16:28:57.548Z,94488.81
2023-03-27T16:31:24.106Z,94494.47
2023-03-27T16:33:51.070Z,94491.16
2023-03-27T16:36:29.594Z,94498.94
2023-03-27T16:38:56.603Z,94490.56
2023-03-27T16:41:23.270Z,94499.03
2023-03-27T16:43:50.112Z,94504.25
2023-03-27T16:46:21.899Z,94487.44
2023-03-27T16:48:51.077Z,94495.47
2023-03-27T16:51:19.039Z,94498.06
2023-03-27T16:53:45.521Z,94504.72
2023-03-27T16:56:12.417Z,94496.91
2023-03-27T16:58:39.755Z,94505.78
2023-03-27T17:01:07.998Z,94502.94
2023-03-27T17:03:37.016Z,94512.56
2023-03-27T17:06:08.529Z,94515.81
2023-03-27T17:08:36.544Z,94513.22
2023-03-27T17:11:08.644Z,94517.00
2023-03-27T17:13:35.950Z,94520.50
2023-03-27T17:16:03.051Z,94531.13
2023-03-27T17:18:29.486Z,94539.88
2023-03-27T17:20:55.907Z,94538.31
2023-03-27T17:23:22.303Z,94544.47
2023-03-27T17:25:49.165Z,94550.19
2023-03-27T17:28:16.049Z,94555.38
2023-03-27T17:30:56.597Z,94552.06
2023-03-27T17:33:29.943Z,94561.66
2023-03-27T17:35:59.379Z,94560.38
2023-03-27T17:38:25.932Z,94561.25
2023-03-27T17:40:52.407Z,94572.97
2023-03-27T17:43:18.821Z,94568.97
2023-03-27T17:45:45.376Z,94565.56
2023-03-27T17:48:12.007Z,94570.56
2023-03-27T17:50:39.218Z,94584.91
2023-03-27T17:53:05.780Z,94585.31
2023-03-27T17:55:32.468Z,94584.34
2023-03-27T17:58:08.836Z,94594.34
2023-03-27T18:00:37.707Z,94595.47
2023-03-27T18:03:04.417Z,94604.44
2023-03-27T18:05:30.958Z,94602.03
2023-03-27T18:07:57.392Z,94611.75
2023-03-27T18:10:24.288Z,94613.69
2023-03-27T18:12:50.955Z,94616.38
2023-03-27T18:15:17.353Z,94619.13
2023-03-27T18:17:43.795Z,94610.53
2023-03-27T18:20:10.331Z,94625.41
2023-03-27T18:22:37.873Z,94627.41
2023-03-27T18:25:06.790Z,94627.09
2023-03-27T18:27:33.219Z,94630.34
2023-03-27T18:29:59.725Z,94629.25
2023-03-27T18:32:26.172Z,94636.88
2023-03-27T18:34:52.712Z,94648.34
2023-03-27T18:37:19.129Z,94650.63
2023-03-27T18:39:46.654Z,94646.47
2023-03-27T18:42:13.520Z,94644.59
2023-03-27T18:44:41.394Z,94645.38
2023-03-27T18:47:08.117Z,94651.97
2023-03-27T18:49:34.550Z,94658.09
2023-03-27T18:52:01.305Z,94652.19
2023-03-27T18:54:28.139Z,94666.38
2023-03-27T18:56:54.616Z,94657.09
2023-03-27T18:59:22.606Z,94661.78
2023-03-27T19:01:49.234Z,94663.91
2023-03-27T19:04:17.266Z,94665.47
2023-03-27T19:06:43.945Z,94664.25
2023-03-27T19:09:10.346Z,94670.16
2023-03-27T19:11:36.974Z,94667.81
2023-03-27T19:14:06.645Z,94670.06
2023-03-27T19:16:37.048Z,94668.63
2023-03-27T19:19:35.401Z,94669.31
2023-03-27T19:22:22.991Z,94681.56
2023-03-27T19:24:59.739Z,94673.31
2023-03-27T19:27:27.578Z,94670.19
2023-03-27T19:30:07.346Z,94667.63
2023-03-27T19:32:33.871Z,94670.97
2023-03-27T19:35:01.692Z,94662.47
2023-03-27T19:37:29.630Z,94674.88
2023-03-27T19:39:56.379Z,94684.13
2023-03-27T19:42:22.854Z,94684.38
2023-03-27T19:44:49.281Z,94678.25
2023-03-27T19:47:15.802Z,94674.66
2023-03-27T19:49:42.616Z,94668.50
2023-03-27T19:52:29.900Z,94672.41
2023-03-27T19:54:56.433Z,94678.34
2023-03-27T19:57:23.923Z,94673.75
2023-03-27T19:59:50.916Z,94672.06
2023-03-27T20:02:17.397Z,94672.97
2023-03-27T20:04:43.940Z,94674.28
2023-03-27T20:07:11.254Z,94680.78
2023-03-27T20:09:37.688Z,94681.31
2023-03-27T20:12:05.806Z,94690.59
2023-03-27T20:14:32.499Z,94689.59
2023-03-27T20:16:58.988Z,94689.47
2023-03-27T20:19:28.533Z,94685.09
2023-03-27T20:21:57.645Z,94695.16
2023-03-27T20:24:24.492Z,94707.78
2023-03-27T20:26:57.024Z,94714.88
2023-03-27T20:29:25.266Z,94698.56
2023-03-27T20:31:51.976Z,94703.34
2023-03-27T20:34:19.512Z,94693.63
2023-03-27T20:36:46.428Z,94709.94
2023-03-27T20:39:30.877Z,94724.25
2023-03-27T20:41:58.962Z,94717.09
2023-03-27T20:44:35.563Z,94715.06
2023-03-27T20:47:11.168Z,94711.16
2023-03-27T20:49:44.640Z,94720.78
2023-03-27T20:52:14.136Z,94717.34
2023-03-27T20:54:41.217Z,94716.09
2023-03-27T20:57:11.096Z,94718.31
2023-03-27T20:59:37.823Z,94712.06
2023-03-27T21:02:04.954Z,94714.88
2023-03-27T21:04:31.769Z,94717.09
2023-03-27T21:06:58.909Z,94722.22
2023-03-27T21:09:26.344Z,94722.22
2023-03-27T21:11:55.011Z,94720.69
2023-03-27T21:14:21.774Z,94719.34
2023-03-27T21:16:48.214Z,94725.69
2023-03-27T21:19:14.640Z,94727.94
2023-03-27T21:21:41.284Z,94723.00
2023-03-27T21:24:07.919Z,94727.34
2023-03-27T21:26:35.242Z,94729.16
2023-03-27T21:29:03.257Z,94732.19
2023-03-27T21:31:29.924Z,94736.75
2023-03-27T21:33:56.593Z,94735.09
2023-03-27T21:36:23.301Z,94737.66
2023-03-27T21:38:50.387Z,94732.16
2023-03-27T21:41:17.229Z,94741.66
2023-03-27T21:43:43.987Z,94742.69
2023-03-27T21:46:10.579Z,94737.97
2023-03-27T21:48:37.407Z,94746.00
2023-03-27T21:51:06.046Z,94747.34
2023-03-27T21:53:32.644Z,94747.22
2023-03-27T21:55:59.443Z,94755.03
2023-03-27T21:58:26.720Z,94746.78
2023-03-27T22:00:57.071Z,94751.56
2023-03-27T22:03:24.941Z,94763.88
2023-03-27T22:06:07.786Z,94754.03
2023-03-27T22:08:38.785Z,94753.34
2023-03-27T22:11:05.930Z,94751.56
2023-03-27T22:13:34.595Z,94750.25
2023-03-27T22:16:01.498Z,94754.47
2023-03-27T22:18:30.474Z,94758.47
2023-03-27T22:20:56.850Z,94760.34
2023-03-27T22:23:23.282Z,94765.34
2023-03-27T22:25:53.984Z,94773.69
2023-03-27T22:28:20.488Z,94776.69
2023-03-27T22:30:46.875Z,94776.94
2023-03-27T22:33:13.291Z,94771.25
2023-03-27T22:35:39.764Z,94769.66
2023-03-27T22:38:06.295Z,94773.22
2023-03-27T22:40:32.714Z,94779.56
2023-03-27T22:42:59.108Z,94783.91
2023-03-27T22:45:25.622Z,94789.47
2023-03-27T22:47:52.063Z,94796.41
2023-03-27T22:50:18.484Z,94793.41
2023-03-27T22:52:44.856Z,94798.56
2023-03-27T22:55:11.320Z,94796.41
2023-03-27T22:57:37.962Z,94803.22
2023-03-27T23:00:06.226Z,94792.63
2023-03-27T23:02:32.698Z,94809.16
2023-03-27T23:04:59.144Z,94812.13
2023-03-27T23:07:25.630Z,94817.13
2023-03-27T23:09:52.071Z,94818.16
2023-03-27T23:12:18.513Z,94823.50
2023-03-27T23:14:44.895Z,94823.13
2023-03-27T23:17:11.328Z,94821.00
2023-03-27T23:19:37.735Z,94825.00
2023-03-27T23:22:04.197Z,94831.13
2023-03-27T23:24:31.005Z,94827.56
2023-03-27T23:26:57.408Z,94833.50
2023-03-27T23:29:23.802Z,94835.50
2023-03-27T23:31:50.216Z,94840.81
2023-03-27T23:34:16.755Z,94836.69
2023-03-27T23:36:43.173Z,94844.19
2023-03-27T23:39:09.536Z,94834.69
2023-03-27T23:41:35.973Z,94841.81
2023-03-27T23:44:02.371Z,94844.97
2023-03-27T23:46:28.943Z,94852.44
2023-03-27T23:48:55.606Z,94847.09
2023-03-27T23:51:22.132Z,94844.19
2023-03-27T23:53:48.516Z,94848.50
2023-03-27T23:56:15.096Z,94844.81
2023-03-27T23:58:41.549Z,94847.81
